Time;durP1;ratioP1;P1;durP2;ratioP2;P2;SDS_P1;SDS_P2;PMS_P1;PMS_P2;Temp;Humidity;BMP_temperature;BMP_pressure;BME280_temperature;BME280_humidity;BME280_pressure;Samples;Min_cycle;Max_cycle;Signal;HPM_P1;HPM_P2
2022/02/24 00:01:49;;;;;;;15.25;5.00;;;7.90;99.90;;;;;;5097391;28;20055;-67
2022/02/24 00:04:14;;;;;;;14.52;4.80;;;7.90;99.90;;;;;;5100985;28;20044;-67
2022/02/24 00:06:40;;;;;;;12.70;4.10;;;7.90;99.90;;;;;;5097196;28;20051;-67
2022/02/24 00:09:07;;;;;;;14.80;4.40;;;7.90;99.90;;;;;;5098030;28;20040;-67
2022/02/24 00:11:35;;;;;;;16.35;5.05;;;8.00;99.90;;;;;;5103436;28;20123;-67
2022/02/24 00:14:01;;;;;;;9.52;3.90;;;8.10;99.90;;;;;;5103151;28;20044;-67
2022/02/24 00:16:27;;;;;;;15.38;5.18;;;8.00;99.90;;;;;;5102798;28;20044;-67
2022/02/24 00:18:53;;;;;;;10.57;3.85;;;8.10;99.90;;;;;;5096959;28;20100;-67
2022/02/24 00:21:18;;;;;;;15.05;4.28;;;8.10;99.90;;;;;;5104866;28;20044;-67
2022/02/24 00:23:44;;;;;;;12.27;4.00;;;8.20;99.90;;;;;;5095954;28;20137;-67
2022/02/24 00:26:11;;;;;;;12.43;4.13;;;8.20;99.90;;;;;;5098038;28;20083;-67
2022/02/24 00:28:36;;;;;;;11.23;4.10;;;8.30;99.90;;;;;;5068260;28;20041;-67
2022/02/24 00:31:03;;;;;;;9.60;3.97;;;8.20;99.90;;;;;;5103739;28;20044;-67
2022/02/24 00:33:28;;;;;;;11.23;3.50;;;8.20;99.90;;;;;;5104956;28;20306;-67
2022/02/24 00:35:54;;;;;;;12.15;3.47;;;8.20;99.90;;;;;;5090739;28;20069;-67
2022/02/24 00:38:20;;;;;;;12.95;3.65;;;8.30;99.90;;;;;;5103898;28;20050;-67
2022/02/24 00:40:47;;;;;;;13.73;3.75;;;8.30;99.90;;;;;;5105262;28;20040;-67
2022/02/24 00:43:13;;;;;;;10.00;3.15;;;8.30;99.90;;;;;;5104469;28;20044;-67
2022/02/24 00:45:39;;;;;;;11.20;3.55;;;8.30;99.90;;;;;;5102836;28;20048;-67
2022/02/24 00:48:06;;;;;;;11.98;3.67;;;8.20;99.90;;;;;;5092947;28;20040;-67
2022/02/24 00:50:32;;;;;;;14.18;3.53;;;8.20;99.90;;;;;;5099076;28;20104;-67
2022/02/24 00:52:58;;;;;;;12.15;3.65;;;8.20;99.90;;;;;;5102889;28;20044;-67
2022/02/24 00:55:25;;;;;;;9.73;2.92;;;8.20;99.90;;;;;;5104045;28;20067;-67
2022/02/24 00:57:54;;;;;;;7.38;3.00;;;8.20;99.90;;;;;;5102427;28;20052;-67
2022/02/24 01:00:21;;;;;;;13.20;3.47;;;8.20;99.90;;;;;;5100291;28;20044;-67
2022/02/24 01:02:47;;;;;;;8.55;3.20;;;8.30;99.90;;;;;;5102477;28;20047;-67
2022/02/24 01:05:12;;;;;;;12.98;3.67;;;8.30;99.90;;;;;;5097084;28;20076;-67
2022/02/24 01:07:38;;;;;;;12.45;3.55;;;8.30;99.90;;;;;;5104483;28;20336;-67
2022/02/24 01:10:05;;;;;;;15.70;4.15;;;8.20;99.90;;;;;;5103363;28;20078;-67
2022/02/24 01:12:32;;;;;;;14.13;3.75;;;8.10;99.90;;;;;;5101702;28;20043;-67
2022/02/24 01:15:03;;;;;;;10.48;3.30;;;8.20;99.90;;;;;;5097765;28;20036;-67
2022/02/24 01:17:30;;;;;;;11.95;3.17;;;8.10;99.90;;;;;;5097371;28;20067;-67
2022/02/24 01:19:56;;;;;;;15.20;4.07;;;8.10;99.90;;;;;;5103836;28;20107;-67
2022/02/24 01:22:21;;;;;;;10.65;3.88;;;8.00;99.90;;;;;;5101092;28;20064;-67
2022/02/24 01:24:47;;;;;;;9.35;3.10;;;8.00;99.90;;;;;;5101586;28;20036;-67
2022/02/24 01:27:13;;;;;;;12.07;3.33;;;8.10;99.90;;;;;;5105077;28;20044;-67
2022/02/24 01:29:39;;;;;;;12.40;3.05;;;8.10;99.90;;;;;;5102095;28;20194;-67
2022/02/24 01:32:05;;;;;;;8.90;3.25;;;8.10;99.90;;;;;;5107917;28;20036;-67
2022/02/24 01:34:31;;;;;;;13.55;3.40;;;8.00;99.90;;;;;;5107822;28;20050;-67
2022/02/24 01:36:56;;;;;;;10.65;3.10;;;8.10;99.90;;;;;;5094542;28;20063;-67
2022/02/24 01:39:22;;;;;;;11.27;3.63;;;8.10;99.90;;;;;;5105948;28;20068;-67
2022/02/24 01:41:48;;;;;;;10.35;2.97;;;8.10;99.90;;;;;;5108636;28;20042;-67
2022/02/24 01:44:14;;;;;;;10.32;2.50;;;8.00;99.90;;;;;;5107225;28;20104;-67
2022/02/24 01:46:42;;;;;;;10.45;2.40;;;7.90;99.90;;;;;;5105754;28;20495;-67
2022/02/24 01:49:08;;;;;;;8.23;2.60;;;8.00;99.90;;;;;;5096304;28;20052;-67
2022/02/24 01:51:35;;;;;;;8.30;2.60;;;8.00;99.90;;;;;;5099360;28;20040;-67
2022/02/24 01:54:01;;;;;;;10.25;2.70;;;8.00;99.90;;;;;;5106764;28;20060;-67
2022/02/24 01:56:27;;;;;;;10.00;3.80;;;7.90;99.90;;;;;;5100185;28;20083;-67
2022/02/24 01:58:54;;;;;;;9.20;2.75;;;7.90;99.90;;;;;;5098861;28;20053;-67
2022/02/24 02:01:21;;;;;;;6.63;2.30;;;8.00;99.90;;;;;;5102682;28;20048;-67
2022/02/24 02:03:48;;;;;;;9.25;2.70;;;8.10;99.90;;;;;;5108334;28;20048;-67
2022/02/24 02:06:14;;;;;;;10.98;3.03;;;7.90;99.90;;;;;;5107182;28;20044;-67
2022/02/24 02:08:40;;;;;;;17.80;3.55;;;7.90;99.90;;;;;;5100137;28;20108;-67
2022/02/24 02:11:06;;;;;;;9.27;2.50;;;7.90;99.90;;;;;;5106882;28;20052;-67
2022/02/24 02:13:35;;;;;;;12.30;3.30;;;7.90;99.90;;;;;;5107255;28;20040;-67
2022/02/24 02:16:01;;;;;;;11.43;3.57;;;8.00;99.90;;;;;;5096020;28;20063;-67
2022/02/24 02:18:27;;;;;;;13.13;3.05;;;8.00;99.90;;;;;;5105511;28;20107;-67
2022/02/24 02:20:53;;;;;;;10.93;3.55;;;8.00;99.90;;;;;;5097998;28;20090;-67
2022/02/24 02:23:19;;;;;;;13.13;3.00;;;7.90;99.90;;;;;;5106177;28;20064;-67
2022/02/24 02:25:46;;;;;;;15.88;3.35;;;7.90;99.90;;;;;;5107197;28;20058;-67
2022/02/24 02:28:16;;;;;;;11.27;2.85;;;7.80;99.90;;;;;;5093856;28;20040;-67
2022/02/24 02:30:42;;;;;;;;;;;7.90;99.90;;;;;;5100157;28;20044;-67
2022/02/24 02:33:08;;;;;;;7.57;2.63;;;7.90;99.90;;;;;;5105461;28;19920;-67
2022/02/24 02:35:35;;;;;;;10.98;2.95;;;7.90;99.90;;;;;;5106513;28;20058;-67
2022/02/24 02:38:01;;;;;;;12.80;3.10;;;7.80;99.90;;;;;;5087668;28;20050;-67
2022/02/24 02:40:27;;;;;;;11.70;2.83;;;7.90;99.90;;;;;;5100287;28;20041;-67
2022/02/24 02:42:53;;;;;;;9.15;2.60;;;7.80;99.90;;;;;;5107505;28;20058;-67
2022/02/24 02:45:19;;;;;;;11.52;3.45;;;7.80;99.90;;;;;;5105076;28;20103;-67
2022/02/24 02:47:45;;;;;;;11.23;2.72;;;7.80;99.90;;;;;;5106565;28;20036;-67
2022/02/24 02:50:11;;;;;;;15.60;3.20;;;7.90;99.90;;;;;;5101187;28;20503;-67
2022/02/24 02:52:37;;;;;;;14.60;2.88;;;7.80;99.90;;;;;;5087390;28;20097;-67
2022/02/24 02:55:12;;;;;;;13.57;2.97;;;7.60;99.90;;;;;;5097547;28;20044;-67
2022/02/24 02:57:39;;;;;;;11.05;2.55;;;7.80;99.90;;;;;;5105124;28;20047;-67
2022/02/24 03:00:11;;;;;;;11.73;2.90;;;7.80;99.90;;;;;;5103776;28;20048;-67
2022/02/24 03:02:36;;;;;;;10.50;3.45;;;7.80;99.90;;;;;;5105091;28;20052;-67
2022/02/24 03:05:03;;;;;;;11.48;2.60;;;7.80;99.90;;;;;;5098831;28;20055;-67
2022/02/24 03:07:29;;;;;;;8.60;2.70;;;7.70;99.90;;;;;;5105918;28;20181;-67
2022/02/24 03:09:54;;;;;;;9.77;2.78;;;7.80;99.90;;;;;;5106425;28;20052;-67
2022/02/24 03:12:20;;;;;;;9.98;2.30;;;7.80;99.90;;;;;;5107130;28;20500;-67
2022/02/24 03:14:46;;;;;;;9.63;2.45;;;7.90;99.90;;;;;;5106645;28;20495;-67
2022/02/24 03:17:12;;;;;;;13.23;2.85;;;7.90;99.90;;;;;;5104726;28;20071;-67
2022/02/24 03:19:39;;;;;;;12.95;3.25;;;7.80;99.90;;;;;;5104739;28;20035;-67
2022/02/24 03:22:10;;;;;;;8.27;3.47;;;7.90;99.90;;;;;;5105599;28;20115;-67
2022/02/24 03:24:37;;;;;;;10.48;2.90;;;7.90;99.90;;;;;;5105789;28;20543;-67
2022/02/24 03:27:03;;;;;;;12.48;2.90;;;7.70;99.90;;;;;;5106661;28;20036;-67
2022/02/24 03:29:29;;;;;;;13.93;2.97;;;7.80;99.90;;;;;;5106388;28;20110;-67
2022/02/24 03:31:55;;;;;;;8.93;2.40;;;7.80;99.90;;;;;;5102979;28;20040;-67
2022/02/24 03:34:21;;;;;;;11.30;2.90;;;7.90;99.90;;;;;;5104306;28;20052;-67
2022/02/24 03:36:46;;;;;;;11.18;2.58;;;8.00;99.90;;;;;;5106549;28;20040;-67
2022/02/24 03:39:12;;;;;;;14.43;2.97;;;7.70;99.90;;;;;;5104382;28;20075;-67
2022/02/24 03:41:38;;;;;;;11.15;2.60;;;7.80;99.90;;;;;;5105127;28;20048;-67
2022/02/24 03:44:04;;;;;;;10.18;2.33;;;7.90;99.90;;;;;;5098765;28;20044;-67
2022/02/24 03:46:30;;;;;;;12.90;2.65;;;7.90;99.90;;;;;;5088062;28;20055;-67
2022/02/24 03:48:55;;;;;;;13.07;3.15;;;7.90;99.90;;;;;;5105830;28;20036;-67
2022/02/24 03:51:21;;;;;;;10.50;2.25;;;7.80;99.90;;;;;;5096232;28;20111;-67
2022/02/24 03:53:47;;;;;;;12.48;2.42;;;7.90;99.90;;;;;;5104925;28;20069;-67
2022/02/24 03:56:13;;;;;;;7.85;2.40;;;7.80;99.90;;;;;;5106093;28;20040;-67
2022/02/24 03:58:39;;;;;;;10.32;2.75;;;7.80;99.90;;;;;;5104800;28;20052;-67
2022/02/24 04:01:05;;;;;;;15.70;3.63;;;7.80;99.90;;;;;;5104547;28;20056;-67
2022/02/24 04:03:31;;;;;;;15.15;2.75;;;7.80;99.90;;;;;;5094797;28;20045;-67
2022/02/24 04:05:56;;;;;;;13.65;2.45;;;7.80;99.90;;;;;;5099959;28;20044;-67
2022/02/24 04:08:22;;;;;;;8.18;2.30;;;7.70;99.90;;;;;;5104836;28;20051;-67
2022/02/24 04:10:48;;;;;;;12.10;3.63;;;7.70;99.90;;;;;;5103095;28;20044;-67
2022/02/24 04:13:14;;;;;;;14.05;2.80;;;7.60;99.90;;;;;;5105005;28;20067;-67
2022/02/24 04:15:40;;;;;;;14.30;2.47;;;7.60;99.90;;;;;;5101913;28;20043;-67
2022/02/24 04:18:06;;;;;;;8.45;2.60;;;7.60;99.90;;;;;;5093722;28;20043;-67
2022/02/24 04:20:32;;;;;;;10.63;2.42;;;7.60;99.90;;;;;;5099610;28;20044;-67
2022/02/24 04:22:58;;;;;;;12.75;2.40;;;7.60;99.90;;;;;;5091776;28;20056;-67
2022/02/24 04:25:24;;;;;;;15.55;3.30;;;7.70;99.90;;;;;;5099781;28;20080;-67
2022/02/24 04:27:51;;;;;;;13.75;2.80;;;7.60;99.90;;;;;;5101837;28;20113;-67
2022/02/24 04:30:18;;;;;;;15.10;3.75;;;7.70;99.90;;;;;;5103949;28;20048;-67
2022/02/24 04:32:45;;;;;;;10.32;2.45;;;7.70;99.90;;;;;;5103108;28;20052;-67
2022/02/24 04:35:11;;;;;;;11.50;2.78;;;7.70;99.90;;;;;;5101246;28;20048;-67
2022/02/24 04:37:37;;;;;;;11.82;3.00;;;7.60;99.90;;;;;;5103946;28;20071;-67
2022/02/24 04:40:05;;;;;;;12.38;2.53;;;7.60;99.90;;;;;;5105007;28;20076;-67
2022/02/24 04:42:30;;;;;;;11.27;2.88;;;7.50;99.90;;;;;;5102953;28;20081;-67
2022/02/24 04:44:57;;;;;;;12.68;2.90;;;7.70;99.90;;;;;;5103123;28;20044;-67
2022/02/24 04:47:24;;;;;;;12.18;2.88;;;7.80;99.90;;;;;;5100714;28;20048;-67
2022/02/24 04:49:50;;;;;;;14.10;3.55;;;7.70;99.90;;;;;;5095893;28;20051;-67
2022/02/24 04:52:16;;;;;;;12.25;3.10;;;7.60;99.90;;;;;;5089164;28;20101;-67
2022/02/24 04:54:42;;;;;;;11.43;2.70;;;7.60;99.90;;;;;;5101814;28;20101;-67
2022/02/24 04:57:08;;;;;;;9.70;3.42;;;7.60;99.90;;;;;;5103165;28;20039;-67
2022/02/24 04:59:33;;;;;;;9.27;2.97;;;7.60;99.90;;;;;;5099179;28;20048;-67
2022/02/24 05:01:59;;;;;;;10.00;2.90;;;7.60;99.90;;;;;;5094137;28;20054;-67
2022/02/24 05:04:25;;;;;;;9.48;3.38;;;7.60;99.90;;;;;;5103104;28;20100;-67
2022/02/24 05:06:50;;;;;;;13.38;3.17;;;7.60;99.90;;;;;;5102851;28;20056;-67
2022/02/24 05:09:16;;;;;;;12.60;3.47;;;7.60;99.90;;;;;;5102301;28;20064;-67
2022/02/24 05:11:42;;;;;;;12.23;3.22;;;7.60;99.90;;;;;;5087759;28;20048;-67
2022/02/24 05:14:08;;;;;;;9.18;3.38;;;7.50;99.90;;;;;;5101114;28;20075;-67
2022/02/24 05:16:34;;;;;;;14.30;3.78;;;7.60;99.90;;;;;;5104727;28;20078;-67
2022/02/24 05:19:00;;;;;;;15.82;4.45;;;7.60;99.90;;;;;;5096581;28;20044;-67
2022/02/24 05:21:26;;;;;;;14.93;4.20;;;7.60;99.90;;;;;;5098541;28;20052;-67
2022/02/24 05:23:52;;;;;;;13.43;3.75;;;7.50;99.90;;;;;;5096212;28;20107;-67
2022/02/24 05:26:18;;;;;;;14.15;3.78;;;7.40;99.90;;;;;;5103420;28;20085;-67
2022/02/24 05:28:44;;;;;;;9.60;3.22;;;7.40;99.90;;;;;;5103079;28;20043;-67
2022/02/24 05:31:09;;;;;;;12.95;3.83;;;7.50;99.90;;;;;;5103169;28;20044;-67
2022/02/24 05:33:35;;;;;;;12.93;3.72;;;7.50;99.90;;;;;;5103555;28;20122;-67
2022/02/24 05:36:04;;;;;;;13.65;3.60;;;7.50;99.90;;;;;;5091651;28;20054;-67
2022/02/24 05:38:30;;;;;;;8.57;3.58;;;7.50;99.90;;;;;;5102512;28;20058;-67
2022/02/24 05:40:57;;;;;;;12.60;4.25;;;7.50;99.90;;;;;;5095972;28;20396;-67
2022/02/24 05:43:23;;;;;;;10.65;4.05;;;7.50;99.90;;;;;;5090010;28;20400;-67
2022/02/24 05:45:49;;;;;;;11.65;3.38;;;7.50;99.90;;;;;;5102440;28;20063;-67
2022/02/24 05:48:14;;;;;;;13.35;4.18;;;7.50;99.90;;;;;;5103864;28;20058;-67
2022/02/24 05:50:41;;;;;;;16.63;3.65;;;7.70;99.90;;;;;;5098090;28;20051;-67
2022/02/24 05:53:07;;;;;;;11.88;3.30;;;7.60;99.90;;;;;;5095990;28;20036;-67
2022/02/24 05:55:34;;;;;;;11.57;3.88;;;7.60;99.90;;;;;;5082802;28;20075;-67
2022/02/24 05:58:00;;;;;;;9.55;3.45;;;7.60;99.90;;;;;;5097732;28;20051;-67
2022/02/24 06:00:26;;;;;;;12.27;3.88;;;7.70;99.90;;;;;;5105367;28;20114;-67
2022/02/24 06:02:52;;;;;;;12.80;3.47;;;7.70;99.90;;;;;;5098812;28;20048;-67
2022/02/24 06:05:18;;;;;;;13.57;3.40;;;7.70;99.90;;;;;;5103642;28;20036;-67
2022/02/24 06:07:44;;;;;;;11.60;3.92;;;7.60;99.90;;;;;;5103790;28;20042;-67
2022/02/24 06:10:11;;;;;;;13.82;3.80;;;7.80;99.90;;;;;;5104484;28;20119;-67
2022/02/24 06:12:38;;;;;;;13.25;3.97;;;7.50;99.90;;;;;;5090278;28;20080;-67
2022/02/24 06:15:05;;;;;;;10.63;3.90;;;7.60;99.90;;;;;;5104714;28;20507;-67
2022/02/24 06:17:31;;;;;;;13.63;3.97;;;7.60;99.90;;;;;;5107623;28;20048;-67
2022/02/24 06:19:57;;;;;;;10.77;3.55;;;7.60;99.90;;;;;;5098183;28;20045;-67
2022/02/24 06:22:23;;;;;;;16.10;4.50;;;7.60;99.90;;;;;;5104503;28;20048;-67
2022/02/24 06:24:50;;;;;;;12.02;3.28;;;7.70;99.90;;;;;;5102912;28;20121;-67
2022/02/24 06:27:17;;;;;;;8.27;2.97;;;7.60;99.90;;;;;;5095971;28;20048;-67
2022/02/24 06:29:42;;;;;;;10.45;3.17;;;7.70;99.90;;;;;;5106484;28;20048;-67
2022/02/24 06:32:08;;;;;;;11.23;3.42;;;7.70;99.90;;;;;;5106530;28;20066;-67
2022/02/24 06:34:34;;;;;;;14.25;3.22;;;7.70;99.90;;;;;;5106587;28;20036;-67
2022/02/24 06:36:59;;;;;;;13.30;3.38;;;7.80;99.90;;;;;;5068973;28;20052;-67
2022/02/24 06:39:25;;;;;;;10.20;3.35;;;7.80;99.90;;;;;;5093692;28;20036;-67
2022/02/24 06:41:51;;;;;;;12.25;3.97;;;7.70;99.90;;;;;;5103858;28;20060;-68
2022/02/24 06:44:16;;;;;;;12.05;3.45;;;7.70;99.90;;;;;;5100128;28;20047;-67
2022/02/24 06:46:44;;;;;;;9.27;3.28;;;7.70;99.90;;;;;;5073119;28;20049;-67
2022/02/24 06:49:10;;;;;;;11.93;3.33;;;7.60;99.90;;;;;;5084554;28;20048;-67
2022/02/24 06:51:36;;;;;;;6.90;2.50;;;7.60;99.90;;;;;;5087661;28;20125;-67
2022/02/24 06:54:02;;;;;;;9.60;3.75;;;7.60;99.90;;;;;;5101806;28;20136;-67
2022/02/24 06:56:27;;;;;;;9.40;3.35;;;7.60;99.90;;;;;;5081922;28;20117;-67
2022/02/24 06:58:53;;;;;;;9.93;3.50;;;7.60;99.90;;;;;;5093600;28;20028;-67
2022/02/24 07:01:19;;;;;;;11.15;3.50;;;7.50;99.90;;;;;;5095718;28;20059;-67
2022/02/24 07:03:45;;;;;;;13.35;3.53;;;7.60;99.90;;;;;;5093129;28;20051;-67
2022/02/24 07:06:11;;;;;;;8.43;3.05;;;7.60;99.90;;;;;;5090511;28;20043;-67
2022/02/24 07:08:37;;;;;;;10.98;3.13;;;7.60;99.90;;;;;;5094570;28;20036;-66
2022/02/24 07:11:03;;;;;;;8.68;3.08;;;7.70;99.90;;;;;;5085795;28;20051;-66
2022/02/24 07:13:29;;;;;;;11.70;3.17;;;7.80;99.90;;;;;;5096156;28;20040;-66
2022/02/24 07:15:55;;;;;;;15.82;4.35;;;7.80;99.90;;;;;;5089650;28;20048;-66
2022/02/24 07:18:21;;;;;;;12.02;4.07;;;7.90;99.90;;;;;;5090477;28;20423;-66
2022/02/24 07:20:47;;;;;;;8.60;3.15;;;8.00;99.90;;;;;;5088723;28;20096;-67
2022/02/24 07:23:13;;;;;;;10.93;3.50;;;8.00;99.90;;;;;;5086620;28;20047;-66
2022/02/24 07:25:39;;;;;;;15.88;3.58;;;7.80;99.90;;;;;;5084934;28;20043;-67
2022/02/24 07:28:07;;;;;;;8.63;2.90;;;7.90;99.90;;;;;;5096803;28;20040;-67
2022/02/24 07:30:36;;;;;;;12.45;3.90;;;7.90;99.90;;;;;;5086670;28;20051;-69
2022/02/24 07:33:02;;;;;;;10.52;4.13;;;7.90;99.90;;;;;;5084171;28;20454;-67
2022/02/24 07:35:28;;;;;;;8.23;3.33;;;7.80;99.90;;;;;;5096322;28;20048;-67
2022/02/24 07:37:54;;;;;;;17.85;4.45;;;7.90;99.90;;;;;;5034904;28;20052;-67
2022/02/24 07:40:19;;;;;;;12.90;4.00;;;7.90;99.90;;;;;;5095328;28;20056;-67
2022/02/24 07:42:45;;;;;;;9.35;3.47;;;7.80;99.90;;;;;;5094876;28;20055;-66
2022/02/24 07:45:11;;;;;;;8.50;3.28;;;7.90;99.90;;;;;;5091824;28;20040;-67
2022/02/24 07:47:37;;;;;;;11.77;4.25;;;8.10;99.90;;;;;;5072927;28;20513;-65
2022/02/24 07:50:05;;;;;;;13.23;3.95;;;8.00;99.90;;;;;;5085064;28;20044;-66
2022/02/24 07:52:30;;;;;;;10.95;3.85;;;8.00;99.90;;;;;;5085392;28;20047;-65
2022/02/24 07:54:56;;;;;;;10.95;3.45;;;7.90;99.90;;;;;;5094479;28;20036;-65
2022/02/24 07:57:22;;;;;;;7.15;3.80;;;8.00;99.90;;;;;;5094061;28;20101;-65
2022/02/24 07:59:48;;;;;;;12.98;4.50;;;8.00;99.90;;;;;;5087220;28;20059;-65
2022/02/24 08:02:14;;;;;;;12.73;4.10;;;8.00;99.90;;;;;;5088228;28;20123;-65
2022/02/24 08:04:40;;;;;;;16.15;4.28;;;8.10;99.90;;;;;;5099577;28;20048;-65
2022/02/24 08:07:05;;;;;;;13.10;4.60;;;7.90;99.90;;;;;;5084225;28;20056;-65
2022/02/24 08:09:31;;;;;;;13.70;4.55;;;7.90;99.90;;;;;;5080273;28;20066;-65
2022/02/24 08:14:41;;;;;;;12.93;4.22;;;8.00;99.90;;;;;;5090401;28;20135;-65
2022/02/24 08:17:07;;;;;;;13.07;4.18;;;8.00;99.90;;;;;;5067403;28;20123;-65
2022/02/24 08:19:34;;;;;;;12.95;4.28;;;8.00;99.90;;;;;;5098243;28;20047;-65
2022/02/24 08:22:00;;;;;;;12.98;3.95;;;8.00;99.90;;;;;;5080135;28;20056;-65
2022/02/24 08:24:26;;;;;;;12.95;4.05;;;8.10;99.90;;;;;;5095862;28;20064;-65
2022/02/24 08:26:54;;;;;;;15.05;4.10;;;8.20;99.90;;;;;;5088271;28;20047;-65
2022/02/24 08:29:21;;;;;;;12.60;4.35;;;8.20;99.90;;;;;;5093225;28;20531;-65
2022/02/24 08:31:46;;;;;;;14.45;4.00;;;8.30;99.90;;;;;;5088624;28;20446;-65
2022/02/24 08:34:12;;;;;;;13.73;3.90;;;8.60;99.90;;;;;;5089379;28;20056;-65
2022/02/24 08:36:38;;;;;;;11.63;4.70;;;8.50;99.90;;;;;;5068503;28;20088;-65
2022/02/24 08:39:05;;;;;;;11.73;4.22;;;8.70;99.90;;;;;;5084996;28;20036;-65
2022/02/24 08:41:32;;;;;;;16.92;4.40;;;8.60;99.90;;;;;;5089289;28;20048;-65
2022/02/24 08:43:58;;;;;;;15.45;4.43;;;8.60;99.90;;;;;;5086056;28;20062;-65
2022/02/24 08:46:24;;;;;;;12.55;3.92;;;8.50;99.90;;;;;;5091862;28;20052;-66
2022/02/24 08:48:49;;;;;;;12.23;4.18;;;8.60;99.90;;;;;;5068408;28;20409;-66
2022/02/24 08:51:15;;;;;;;15.55;4.80;;;8.60;99.90;;;;;;5085510;28;20040;-67
2022/02/24 08:53:41;;;;;;;14.90;4.40;;;8.60;99.90;;;;;;5085341;28;20040;-66
2022/02/24 08:56:07;;;;;;;15.07;4.18;;;8.60;99.90;;;;;;5074543;28;20042;-66
2022/02/24 08:58:32;;;;;;;12.50;3.50;;;8.60;99.90;;;;;;5070357;28;20132;-71
2022/02/24 09:00:58;;;;;;;13.00;3.90;;;8.90;99.90;;;;;;5076995;28;20056;-66
2022/02/24 09:03:24;;;;;;;13.73;4.63;;;8.80;99.90;;;;;;5081306;28;20074;-65
2022/02/24 09:05:50;;;;;;;19.38;5.28;;;8.70;99.90;;;;;;5097015;28;20036;-65
2022/02/24 09:08:15;;;;;;;15.65;5.25;;;8.70;99.90;;;;;;5082231;28;20081;-65
2022/02/24 09:10:42;;;;;;;13.82;4.40;;;8.80;99.90;;;;;;5097285;28;20036;-66
2022/02/24 09:13:07;;;;;;;12.77;4.22;;;8.70;99.90;;;;;;5077049;28;20057;-65
2022/02/24 09:15:35;;;;;;;14.23;4.13;;;8.70;99.90;;;;;;5094669;28;20048;-66
2022/02/24 09:18:01;;;;;;;11.30;3.60;;;8.80;99.90;;;;;;5081016;28;20111;-66
2022/02/24 09:20:29;;;;;;;16.13;4.40;;;9.00;99.90;;;;;;5084254;28;20571;-68
2022/02/24 09:22:55;;;;;;;16.58;4.22;;;9.10;99.90;;;;;;5071581;28;20063;-68
2022/02/24 09:25:23;;;;;;;11.20;3.80;;;8.90;99.90;;;;;;5087331;28;20062;-68
2022/02/24 09:27:50;;;;;;;13.13;4.05;;;9.00;99.90;;;;;;5099275;28;20602;-68
2022/02/24 09:30:15;;;;;;;18.52;5.10;;;9.10;99.90;;;;;;5091492;28;20076;-67
2022/02/24 09:32:43;;;;;;;13.07;4.35;;;9.10;99.90;;;;;;5076163;28;20048;-67
2022/02/24 09:35:10;;;;;;;10.93;3.95;;;9.30;99.90;;;;;;5085855;28;20215;-68
2022/02/24 09:37:36;;;;;;;12.40;4.28;;;9.10;99.90;;;;;;5067587;28;20056;-67
2022/02/24 09:40:03;;;;;;;14.02;3.50;;;9.10;99.90;;;;;;5101111;28;20145;-67
2022/02/24 09:42:29;;;;;;;13.27;3.83;;;9.00;99.90;;;;;;5085975;28;20293;-68
2022/02/24 09:44:55;;;;;;;14.68;4.13;;;9.00;99.90;;;;;;5096209;28;20046;-68
2022/02/24 09:47:21;;;;;;;14.70;4.25;;;9.00;99.90;;;;;;5093041;28;20052;-67
2022/02/24 09:49:48;;;;;;;12.80;4.10;;;9.00;99.90;;;;;;5093709;28;20032;-67
2022/02/24 09:52:14;;;;;;;15.57;4.82;;;9.00;99.90;;;;;;5088803;28;20048;-67
2022/02/24 09:54:40;;;;;;;9.98;3.90;;;9.00;99.90;;;;;;5090180;28;20652;-68
2022/02/24 09:57:05;;;;;;;12.40;4.13;;;9.00;99.90;;;;;;5095495;28;20096;-67
2022/02/24 09:59:31;;;;;;;13.00;4.25;;;9.10;99.90;;;;;;5095340;28;20081;-67
2022/02/24 10:01:59;;;;;;;8.10;3.38;;;9.10;99.90;;;;;;5073839;28;20075;-67
2022/02/24 10:04:25;;;;;;;13.98;4.25;;;9.10;99.90;;;;;;5091283;28;20052;-68
2022/02/24 10:06:52;;;;;;;12.82;3.88;;;9.30;99.90;;;;;;5078057;28;20052;-67
2022/02/24 10:09:29;;;;;;;14.55;3.55;;;9.30;99.90;;;;;;5099116;28;20074;-71
2022/02/24 10:12:09;;;;;;;8.23;3.13;;;9.20;99.90;;;;;;5091875;28;20054;-70
2022/02/24 10:14:36;;;;;;;14.85;3.78;;;9.30;99.90;;;;;;5091449;28;20504;-69
2022/02/24 10:17:05;;;;;;;8.52;3.17;;;9.40;99.90;;;;;;5089234;28;20063;-69
2022/02/24 10:19:31;;;;;;;7.07;3.28;;;9.30;99.90;;;;;;5092344;28;20047;-69
2022/02/24 10:22:25;;;;;;;11.13;3.70;;;9.40;99.90;;;;;;5089867;28;20055;-70
2022/02/24 10:25:11;;;;;;;12.70;3.88;;;9.40;99.90;;;;;;5088376;28;20044;-69
2022/02/24 10:27:40;;;;;;;13.13;3.30;;;9.40;99.90;;;;;;5085003;28;20052;-69
2022/02/24 10:30:16;;;;;;;12.25;3.40;;;9.50;99.90;;;;;;5092725;28;20107;-69
2022/02/24 10:32:47;;;;;;;8.20;2.78;;;9.60;99.90;;;;;;5090651;28;20103;-70
2022/02/24 10:35:19;;;;;;;9.88;3.00;;;9.50;99.90;;;;;;5097397;28;20044;-69
2022/02/24 10:37:54;;;;;;;12.85;3.50;;;9.50;99.90;;;;;;5065765;28;20179;-69
2022/02/24 10:40:20;;;;;;;7.30;3.20;;;9.60;99.90;;;;;;5091438;28;20040;-70
2022/02/24 10:42:46;;;;;;;8.38;3.17;;;9.50;99.90;;;;;;5089205;28;20059;-68
2022/02/24 10:45:16;;;;;;;13.07;3.47;;;9.50;99.90;;;;;;5093030;28;20139;-69
2022/02/24 10:48:03;;;;;;;10.40;3.40;;;9.40;99.90;;;;;;5086347;28;20051;-68
2022/02/24 10:50:56;;;;;;;7.90;3.15;;;9.40;99.90;;;;;;5094866;28;20047;-69
2022/02/24 10:53:31;;;;;;;7.65;2.88;;;9.60;99.90;;;;;;5083185;28;20051;-69
2022/02/24 10:55:59;;;;;;;8.80;3.17;;;9.60;99.90;;;;;;5096278;28;20463;-69
2022/02/24 10:58:40;;;;;;;13.45;3.25;;;9.70;99.90;;;;;;5101654;28;20053;-69
2022/02/24 11:01:05;;;;;;;9.40;3.22;;;9.80;99.90;;;;;;5092460;28;20141;-69
2022/02/24 11:03:31;;;;;;;9.23;3.13;;;9.80;99.90;;;;;;5090362;28;20566;-69
2022/02/24 11:06:04;;;;;;;10.73;2.72;;;10.10;99.90;;;;;;5097151;28;20052;-69
2022/02/24 11:08:30;;;;;;;13.02;3.13;;;10.40;99.90;;;;;;5079819;28;20043;-69
2022/02/24 11:10:57;;;;;;;7.45;2.28;;;10.20;99.90;;;;;;5077959;28;20531;-71
2022/02/24 11:13:23;;;;;;;5.97;3.10;;;10.40;99.90;;;;;;5087437;28;20067;-70
2022/02/24 11:15:50;;;;;;;9.20;2.70;;;10.20;99.90;;;;;;5085205;28;20055;-71
2022/02/24 11:18:16;;;;;;;6.38;3.03;;;10.00;99.90;;;;;;5086323;28;20060;-71
2022/02/24 11:20:43;;;;;;;9.88;2.60;;;10.10;99.90;;;;;;5098785;28;20054;-70
2022/02/24 11:23:09;;;;;;;8.63;3.28;;;10.10;99.90;;;;;;5077018;28;20048;-71
2022/02/24 11:25:49;;;;;;;9.13;3.17;;;10.10;99.90;;;;;;5068368;28;20099;-71
2022/02/24 11:28:17;;;;;;;6.57;2.35;;;10.20;99.90;;;;;;5085472;28;20039;-71
2022/02/24 11:30:47;;;;;;;6.50;2.95;;;10.30;99.90;;;;;;5076491;28;20055;-69
2022/02/24 11:33:16;;;;;;;7.78;2.97;;;10.30;99.90;;;;;;5081761;28;20044;-70
2022/02/24 11:35:42;;;;;;;5.97;2.80;;;10.20;99.90;;;;;;5095404;28;20404;-70
2022/02/24 11:38:13;;;;;;;13.38;3.42;;;10.20;99.90;;;;;;5045909;28;20048;-70
2022/02/24 11:40:40;;;;;;;9.90;3.83;;;10.30;99.90;;;;;;5097485;28;20075;-69
2022/02/24 11:43:23;;;;;;;9.20;3.08;;;10.60;99.90;;;;;;5087147;28;20123;-69
2022/02/24 11:45:50;;;;;;;5.65;2.33;;;10.70;99.90;;;;;;5094854;28;20036;-69
2022/02/24 11:48:18;;;;;;;9.18;3.22;;;10.60;99.90;;;;;;5084829;28;20289;-70
2022/02/24 11:50:53;;;;;;;10.88;3.10;;;10.80;99.90;;;;;;5096757;28;20539;-70
2022/02/24 11:53:40;;;;;;;7.05;2.63;;;10.80;99.90;;;;;;5083473;28;20160;-70
2022/02/24 11:56:16;;;;;;;11.70;3.38;;;10.70;99.90;;;;;;5093894;28;20044;-70
2022/02/24 11:58:46;;;;;;;8.40;2.40;;;10.90;99.90;;;;;;5082571;28;20124;-70
2022/02/24 12:01:13;;;;;;;;;;;10.70;99.90;;;;;;5097127;28;20047;-67
2022/02/24 12:03:48;;;;;;;7.50;2.17;;;10.40;99.90;;;;;;5095842;28;20123;-66
2022/02/24 12:06:22;;;;;;;8.55;3.25;;;10.50;99.90;;;;;;5093705;28;20068;-67
2022/02/24 12:09:01;;;;;;;7.15;2.42;;;10.50;99.90;;;;;;5060165;28;20060;-66
2022/02/24 12:11:34;;;;;;;8.25;3.00;;;10.70;99.90;;;;;;5083866;28;20040;-68
2022/02/24 12:14:01;;;;;;;11.27;3.63;;;10.70;99.90;;;;;;5089337;28;20094;-67
2022/02/24 12:16:27;;;;;;;12.13;3.72;;;10.60;99.90;;;;;;5082180;28;20044;-67
2022/02/24 12:18:55;;;;;;;7.40;2.80;;;10.60;99.90;;;;;;5100765;28;20039;-67
2022/02/24 12:21:36;;;;;;;8.25;2.78;;;10.70;99.90;;;;;;5095373;28;20253;-67
2022/02/24 12:24:12;;;;;;;7.38;3.10;;;10.80;99.90;;;;;;5065192;28;20154;-67
2022/02/24 12:26:50;;;;;;;7.70;2.20;;;11.00;99.90;;;;;;5101499;28;20044;-67
2022/02/24 12:29:28;;;;;;;6.95;2.22;;;11.20;99.90;;;;;;5096636;28;20044;-67
2022/02/24 12:31:59;;;;;;;7.25;2.75;;;11.30;99.90;;;;;;5076210;28;20055;-67
2022/02/24 12:34:27;;;;;;;10.50;2.85;;;11.10;99.90;;;;;;5085757;28;20040;-67
2022/02/24 12:37:05;;;;;;;7.53;2.17;;;11.00;99.90;;;;;;5078533;28;20047;-67
2022/02/24 12:39:37;;;;;;;11.32;3.72;;;10.70;99.90;;;;;;5083462;28;20177;-67
2022/02/24 12:42:04;;;;;;;10.23;2.75;;;10.70;99.90;;;;;;5086788;28;20056;-67
2022/02/24 12:44:31;;;;;;;7.32;2.67;;;10.60;99.90;;;;;;5083398;28;20378;-67
2022/02/24 12:46:58;;;;;;;7.43;2.75;;;10.70;99.90;;;;;;5078376;28;20123;-67
2022/02/24 12:49:24;;;;;;;7.68;2.60;;;10.70;99.90;;;;;;5086179;28;20048;-67
2022/02/24 12:51:56;;;;;;;11.82;2.70;;;10.60;99.90;;;;;;5082728;28;20083;-67